Time;durP1;ratioP1;P1;durP2;ratioP2;P2;SDS_P1;SDS_P2;PMS_P1;PMS_P2;Temp;Humidity;BMP_temperature;BMP_pressure;BME280_temperature;BME280_humidity;BME280_pressure;Samples;Min_cycle;Max_cycle;Signal;HPM_P1;HPM_P2
2024/02/17 00:01:20;;;;;;;108.20;101.60;;;10.60;99.90;;;;;;12577323;28;20078;-35
2024/02/17 00:07:22;;;;;;;109.88;103.22;;;10.60;99.90;;;;;;12563647;28;20461;-35
2024/02/17 00:13:24;;;;;;;108.63;101.97;;;10.50;99.90;;;;;;12568354;28;20480;-36
2024/02/17 00:19:26;;;;;;;111.88;105.03;;;10.50;99.90;;;;;;12532266;28;20076;-35
2024/02/17 00:25:27;;;;;;;108.03;101.35;;;10.40;99.90;;;;;;12570035;28;20157;-35
2024/02/17 00:31:29;;;;;;;104.05;97.88;;;10.30;99.90;;;;;;12567050;28;20052;-35
2024/02/17 00:37:31;;;;;;;105.20;98.88;;;10.30;99.90;;;;;;12567427;28;20053;-35
2024/02/17 00:43:34;;;;;;;102.88;96.72;;;10.20;99.90;;;;;;12566700;28;20405;-35
2024/02/17 00:49:35;;;;;;;101.35;95.22;;;10.20;99.90;;;;;;12565654;28;20378;-35
2024/02/17 00:55:37;;;;;;;108.60;102.10;;;10.10;99.90;;;;;;12565394;28;20049;-35
2024/02/17 01:01:39;;;;;;;109.45;102.80;;;10.20;99.90;;;;;;12547440;28;20540;-35
2024/02/17 01:07:41;;;;;;;114.50;107.20;;;10.10;99.90;;;;;;12537047;28;20520;-36
2024/02/17 01:13:43;;;;;;;115.80;108.70;;;10.10;99.90;;;;;;12553430;28;20060;-35
2024/02/17 01:19:45;;;;;;;114.43;107.13;;;10.10;99.90;;;;;;12575422;28;20448;-36
2024/02/17 01:25:47;;;;;;;106.28;99.97;;;10.00;99.90;;;;;;12546057;28;20122;-35
2024/02/17 01:31:51;;;;;;;106.15;99.45;;;10.00;99.90;;;;;;12578799;28;20507;-36
2024/02/17 01:37:53;;;;;;;100.25;93.93;;;9.90;99.90;;;;;;12559609;28;20057;-35
2024/02/17 01:43:55;;;;;;;98.60;92.55;;;9.90;99.90;;;;;;12555235;28;20075;-35
2024/02/17 01:49:57;;;;;;;95.70;90.00;;;9.90;99.90;;;;;;12573002;28;20069;-36
2024/02/17 01:55:59;;;;;;;97.97;92.15;;;9.90;99.90;;;;;;12551213;28;20052;-35
2024/02/17 02:02:01;;;;;;;100.82;94.75;;;10.00;99.90;;;;;;12567624;28;20045;-35
2024/02/17 02:08:03;;;;;;;98.43;92.53;;;9.90;99.90;;;;;;12559821;28;20641;-35
2024/02/17 02:14:20;;;;;;;96.13;90.55;;;9.90;99.90;;;;;;12584790;28;20045;-35
2024/02/17 02:20:24;;;;;;;93.78;88.07;;;9.80;99.90;;;;;;12554121;28;20061;-35
2024/02/17 02:26:26;;;;;;;97.68;91.68;;;9.80;99.90;;;;;;12522466;28;20139;-35
2024/02/17 02:32:28;;;;;;;94.88;89.00;;;9.80;99.90;;;;;;12521642;28;20048;-35
2024/02/17 02:38:30;;;;;;;94.28;88.45;;;9.80;99.90;;;;;;12521413;28;20045;-35
2024/02/17 02:44:32;;;;;;;98.07;91.90;;;9.80;99.90;;;;;;12519860;28;20532;-36
2024/02/17 02:50:34;;;;;;;96.03;90.10;;;9.80;99.90;;;;;;12510500;28;20141;-36
2024/02/17 02:56:35;;;;;;;94.85;88.93;;;9.70;99.90;;;;;;12541329;28;20796;-36
2024/02/17 03:02:37;;;;;;;95.18;89.03;;;9.80;99.90;;;;;;12538248;28;20079;-35
2024/02/17 03:08:39;;;;;;;96.93;90.43;;;9.70;99.90;;;;;;12532874;28;20135;-35
2024/02/17 03:14:42;;;;;;;99.47;93.22;;;9.70;99.90;;;;;;12509192;28;20417;-35
2024/02/17 03:20:44;;;;;;;95.65;89.45;;;9.70;99.90;;;;;;12523579;28;20061;-35
2024/02/17 03:26:45;;;;;;;101.93;95.20;;;9.70;99.90;;;;;;12507935;28;20064;-35
2024/02/17 03:32:47;;;;;;;102.82;96.18;;;9.70;99.90;;;;;;12539286;28;20045;-35
2024/02/17 03:38:49;;;;;;;103.30;96.85;;;9.70;99.90;;;;;;12528916;28;20053;-35
2024/02/17 03:44:51;;;;;;;100.38;93.75;;;9.70;99.90;;;;;;12542738;28;20048;-36
2024/02/17 03:50:54;;;;;;;102.30;95.80;;;9.60;99.90;;;;;;12547847;28;20045;-35
2024/02/17 03:56:56;;;;;;;105.35;98.25;;;9.70;99.90;;;;;;12523520;28;20623;-35
2024/02/17 04:02:58;;;;;;;99.50;92.82;;;9.70;99.90;;;;;;12546421;28;20055;-35
2024/02/17 04:09:00;;;;;;;100.60;94.15;;;9.80;99.90;;;;;;12513972;28;20136;-35
2024/02/17 04:15:02;;;;;;;104.03;97.45;;;9.80;99.90;;;;;;12521414;28;20041;-35
2024/02/17 04:21:04;;;;;;;105.25;98.63;;;9.70;99.90;;;;;;12554076;28;20052;-35
2024/02/17 04:27:08;;;;;;;101.57;95.05;;;9.70;99.90;;;;;;12565271;28;20045;-35
2024/02/17 04:33:10;;;;;;;102.30;95.60;;;9.80;99.90;;;;;;12573540;28;20405;-35
2024/02/17 04:39:13;;;;;;;106.70;99.72;;;9.70;99.90;;;;;;12571339;28;20048;-35
2024/02/17 04:45:15;;;;;;;105.28;98.38;;;9.80;99.90;;;;;;12533365;28;20056;-35
2024/02/17 04:51:17;;;;;;;105.10;98.20;;;9.70;99.90;;;;;;12579035;28;20052;-35
2024/02/17 04:57:19;;;;;;;105.35;98.40;;;9.70;99.90;;;;;;12570299;28;20678;-35
2024/02/17 05:03:21;;;;;;;112.47;105.03;;;9.70;99.90;;;;;;12527609;28;20053;-35
2024/02/17 05:09:25;;;;;;;108.88;101.88;;;9.60;99.90;;;;;;12543683;28;20049;-35
2024/02/17 05:15:27;;;;;;;105.55;98.25;;;9.60;99.90;;;;;;12560850;28;20040;-35
2024/02/17 05:21:28;;;;;;;105.82;98.68;;;9.70;99.90;;;;;;12537968;28;20049;-36
2024/02/17 05:27:31;;;;;;;106.95;99.93;;;9.70;99.90;;;;;;12550046;28;20450;-35
2024/02/17 05:33:33;;;;;;;107.53;100.05;;;9.80;99.90;;;;;;12562687;28;20048;-35
2024/02/17 05:39:35;;;;;;;102.95;96.25;;;9.70;99.90;;;;;;12568352;28;20052;-35
2024/02/17 05:45:37;;;;;;;104.82;97.65;;;9.60;99.90;;;;;;12561494;28;20041;-35
2024/02/17 05:51:39;;;;;;;99.10;92.40;;;9.60;99.90;;;;;;12566725;28;20051;-36
2024/02/17 05:57:41;;;;;;;90.90;85.18;;;9.70;99.90;;;;;;12557413;28;20056;-35
2024/02/17 06:03:43;;;;;;;96.90;90.53;;;9.70;99.90;;;;;;12557081;28;20432;-35
2024/02/17 06:09:45;;;;;;;96.22;90.00;;;9.70;99.90;;;;;;12561766;28;20550;-35
2024/02/17 06:15:48;;;;;;;96.60;90.25;;;9.60;99.90;;;;;;12580462;28;20053;-35
2024/02/17 06:21:50;;;;;;;91.90;85.80;;;9.60;99.90;;;;;;12545206;28;20056;-35
2024/02/17 06:27:52;;;;;;;94.05;87.88;;;9.70;99.90;;;;;;12574513;28;20531;-36
2024/02/17 06:33:55;;;;;;;92.18;86.07;;;9.60;99.90;;;;;;12574623;28;20088;-36
2024/02/17 06:39:57;;;;;;;84.30;78.75;;;9.60;99.90;;;;;;12564543;28;20101;-36
2024/02/17 06:45:59;;;;;;;89.22;83.60;;;9.70;99.90;;;;;;12577255;28;20045;-36
2024/02/17 06:52:01;;;;;;;90.75;84.68;;;9.60;99.90;;;;;;12567271;28;20055;-35
2024/02/17 06:58:03;;;;;;;95.15;89.18;;;9.60;99.90;;;;;;12569649;28;20501;-35
2024/02/17 07:04:05;;;;;;;92.47;86.65;;;9.60;99.90;;;;;;12569093;28;20132;-35
2024/02/17 07:10:08;;;;;;;97.90;91.30;;;9.60;99.90;;;;;;12588562;28;20076;-36
2024/02/17 07:16:11;;;;;;;96.68;90.30;;;9.60;99.90;;;;;;12590118;28;20049;-35
2024/02/17 07:22:13;;;;;;;97.68;90.78;;;9.60;99.90;;;;;;12554913;28;20069;-35
2024/02/17 07:28:15;;;;;;;95.95;89.75;;;9.60;99.90;;;;;;12570056;28;20056;-35
2024/02/17 07:34:17;;;;;;;97.22;90.35;;;9.60;99.90;;;;;;12555364;28;20045;-35
2024/02/17 07:40:19;;;;;;;92.20;86.00;;;9.60;99.90;;;;;;12575996;28;20052;-36
2024/02/17 07:46:21;;;;;;;88.50;82.55;;;9.70;99.90;;;;;;12573155;28;20045;-35
2024/02/17 07:52:24;;;;;;;97.80;91.55;;;9.70;99.90;;;;;;12586428;28;20037;-35
2024/02/17 07:58:25;;;;;;;97.57;91.18;;;9.70;99.90;;;;;;12547182;28;20483;-36
2024/02/17 08:04:27;;;;;;;92.43;86.22;;;9.70;99.90;;;;;;12561077;28;20053;-36
2024/02/17 08:10:29;;;;;;;88.47;82.80;;;9.70;99.90;;;;;;12581567;28;20045;-37
2024/02/17 08:16:31;;;;;;;83.78;77.97;;;9.80;99.90;;;;;;12571859;28;20519;-36
2024/02/17 08:22:33;;;;;;;90.57;84.22;;;9.90;99.90;;;;;;12563643;28;20139;-35
2024/02/17 08:28:35;;;;;;;85.53;79.55;;;9.90;99.90;;;;;;12560080;28;20496;-35
2024/02/17 08:34:37;;;;;;;86.95;81.20;;;10.00;99.90;;;;;;12592302;28;20405;-35
2024/02/17 08:40:40;;;;;;;90.15;84.20;;;10.10;99.90;;;;;;12569155;28;20473;-36
2024/02/17 08:46:41;;;;;;;87.90;82.10;;;10.20;99.90;;;;;;12555211;28;20041;-36
2024/02/17 08:52:43;;;;;;;87.57;81.68;;;10.10;99.90;;;;;;12559508;28;20056;-36
2024/02/17 08:58:45;;;;;;;85.40;79.68;;;10.10;99.90;;;;;;12589573;28;20087;-35
2024/02/17 09:04:47;;;;;;;81.80;76.63;;;10.30;99.90;;;;;;12554976;28;20124;-35
2024/02/17 09:10:49;;;;;;;85.30;79.90;;;10.30;99.90;;;;;;12564456;28;20044;-36
2024/02/17 09:16:51;;;;;;;98.10;91.97;;;10.30;99.90;;;;;;12539253;28;20063;-35
2024/02/17 09:22:53;;;;;;;102.68;96.32;;;10.40;99.90;;;;;;12528767;28;20063;-35
2024/02/17 09:28:55;;;;;;;90.00;84.57;;;10.20;99.90;;;;;;12526150;28;20520;-35
2024/02/17 09:34:57;;;;;;;78.15;73.38;;;10.00;99.90;;;;;;12512936;28;20870;-35
2024/02/17 09:41:00;;;;;;;76.70;71.50;;;9.90;99.90;;;;;;12517327;28;20178;-35
2024/02/17 09:47:03;;;;;;;81.22;76.13;;;10.10;99.90;;;;;;12514455;28;20198;-36
2024/02/17 09:53:07;;;;;;;86.90;81.55;;;10.00;99.90;;;;;;12526109;28;20053;-36
2024/02/17 09:59:10;;;;;;;81.47;76.50;;;10.00;99.90;;;;;;12504951;28;20049;-36
2024/02/17 10:05:12;;;;;;;70.05;65.75;;;10.00;99.90;;;;;;12506217;28;20306;-35
2024/02/17 10:11:14;;;;;;;86.13;81.25;;;10.40;99.90;;;;;;12498754;28;20077;-35
2024/02/17 10:17:16;;;;;;;88.47;83.60;;;10.90;99.90;;;;;;12512528;28;20179;-34
2024/02/17 10:23:18;;;;;;;97.72;92.38;;;11.00;99.90;;;;;;12513489;28;20059;-35
2024/02/17 10:29:20;;;;;;;131.20;123.80;;;11.20;99.90;;;;;;12518646;28;20238;-35
2024/02/17 10:35:24;;;;;;;125.32;118.32;;;11.50;99.90;;;;;;12537648;28;20496;-36
2024/02/17 10:41:27;;;;;;;;;;;11.20;99.90;;;;;;12528907;28;20056;-36
2024/02/17 10:47:36;;;;;;;103.80;98.13;;;10.80;99.90;;;;;;12523866;28;19921;-35
2024/02/17 10:53:42;;;;;;;103.30;97.60;;;10.60;99.90;;;;;;12534420;28;20045;-35
2024/02/17 10:59:46;;;;;;;113.88;107.88;;;10.50;99.90;;;;;;12503109;28;20073;-35
2024/02/17 11:05:51;;;;;;;85.68;81.22;;;10.60;99.90;;;;;;12515150;28;20107;-35
2024/02/17 11:11:53;;;;;;;101.18;96.10;;;11.00;99.90;;;;;;12512562;28;20557;-36
2024/02/17 11:17:59;;;;;;;104.57;98.85;;;11.40;99.90;;;;;;12530062;28;20048;-35
2024/02/17 11:24:01;;;;;;;103.85;98.65;;;11.60;99.90;;;;;;12563766;28;20052;-35
2024/02/17 11:30:06;;;;;;;99.13;94.05;;;11.50;99.90;;;;;;12565531;28;20056;-36
2024/02/17 11:36:10;;;;;;;102.88;97.63;;;11.70;99.90;;;;;;12580458;28;20051;-36
2024/02/17 11:42:15;;;;;;;92.53;87.88;;;11.50;99.90;;;;;;12574670;28;20049;-36
2024/02/17 11:48:17;;;;;;;88.03;83.70;;;11.40;99.90;;;;;;12560857;28;20049;-35
2024/02/17 11:54:20;;;;;;;82.18;77.88;;;11.60;99.90;;;;;;12577187;28;20070;-37
2024/02/17 12:00:22;;;;;;;76.55;72.75;;;12.00;99.90;;;;;;12568593;28;20080;-36
2024/02/17 12:06:28;;;;;;;90.35;86.03;;;12.60;99.90;;;;;;12564499;28;20488;-35
2024/02/17 12:12:32;;;;;;;99.10;94.30;;;12.50;99.90;;;;;;12589783;28;20044;-35
2024/02/17 12:18:38;;;;;;;96.68;92.05;;;12.20;99.90;;;;;;12574532;28;20048;-36
2024/02/17 12:24:41;;;;;;;89.38;84.97;;;11.80;99.90;;;;;;12558599;28;20051;-35
2024/02/17 12:30:48;;;;;;;75.72;72.03;;;11.30;99.90;;;;;;12551963;28;20704;-35
2024/02/17 12:36:51;;;;;;;66.22;62.78;;;11.30;99.90;;;;;;12569675;28;20052;-35
2024/02/17 12:42:53;;;;;;;61.15;57.92;;;11.60;99.90;;;;;;12555172;28;20144;-36
2024/02/17 12:48:56;;;;;;;64.18;60.88;;;11.90;99.90;;;;;;12569246;28;20041;-35
2024/02/17 12:54:58;;;;;;;73.75;70.15;;;12.20;99.90;;;;;;12577813;28;20119;-35
2024/02/17 13:01:00;;;;;;;72.35;68.65;;;12.40;99.90;;;;;;12572969;28;20076;-36
2024/02/17 13:07:02;;;;;;;78.30;74.30;;;12.60;99.90;;;;;;12576401;28;20056;-35
2024/02/17 13:13:05;;;;;;;62.08;58.88;;;12.50;99.90;;;;;;12565211;28;20043;-36
2024/02/17 13:19:07;;;;;;;84.63;80.53;;;12.60;99.90;;;;;;12558718;28;20143;-36
2024/02/17 13:25:09;;;;;;;69.43;66.03;;;12.40;99.90;;;;;;12559393;28;20059;-36
2024/02/17 13:31:17;;;;;;;57.60;54.80;;;12.40;99.90;;;;;;12574111;28;20048;-35
2024/02/17 13:37:19;;;;;;;56.33;53.42;;;12.50;99.90;;;;;;12563408;28;20485;-35
2024/02/17 13:43:21;;;;;;;56.42;53.63;;;12.40;99.90;;;;;;12548850;28;20394;-36
2024/02/17 13:49:22;;;;;;;55.17;52.47;;;12.50;99.90;;;;;;12569632;28;20095;-35
2024/02/17 13:55:32;;;;;;;53.28;50.55;;;12.40;99.90;;;;;;12571498;28;20052;-36
2024/02/17 14:01:38;;;;;;;50.78;48.28;;;12.40;99.90;;;;;;12527182;28;20049;-35
2024/02/17 14:07:41;;;;;;;50.80;47.90;;;12.50;99.90;;;;;;12573259;28;20089;-35
2024/02/17 14:13:42;;;;;;;55.08;52.08;;;12.40;99.90;;;;;;12557092;28;20091;-35
2024/02/17 14:19:45;;;;;;;52.55;49.95;;;12.10;99.90;;;;;;12562836;28;20091;-35
2024/02/17 14:25:48;;;;;;;49.40;46.80;;;11.80;99.90;;;;;;12521434;28;20064;-35
2024/02/17 14:31:50;;;;;;;43.47;41.17;;;11.60;99.90;;;;;;12515368;28;20074;-35
2024/02/17 14:37:52;;;;;;;44.00;41.65;;;11.80;99.90;;;;;;12526038;28;20082;-36
2024/02/17 14:43:54;;;;;;;45.17;42.88;;;12.00;99.90;;;;;;12524067;28;20164;-36
2024/02/17 14:49:58;;;;;;;48.28;45.63;;;11.90;99.90;;;;;;12530213;28;20561;-35
2024/02/17 14:56:00;;;;;;;46.47;44.10;;;11.90;99.90;;;;;;12518360;28;20128;-35
2024/02/17 15:02:02;;;;;;;45.20;42.90;;;11.70;99.90;;;;;;12512072;28;20472;-35
2024/02/17 15:08:05;;;;;;;48.17;45.67;;;11.70;99.90;;;;;;12507217;28;20068;-35
2024/02/17 15:14:07;;;;;;;39.53;37.47;;;11.40;99.90;;;;;;12528326;28;20413;-35
2024/02/17 15:20:09;;;;;;;39.75;37.60;;;11.30;99.90;;;;;;12525341;28;20064;-35
2024/02/17 15:26:14;;;;;;;38.17;36.10;;;11.10;99.90;;;;;;12518002;28;20496;-35
2024/02/17 15:32:16;;;;;;;35.95;33.97;;;11.30;99.90;;;;;;12525716;28;20425;-35
2024/02/17 15:38:18;;;;;;;40.38;38.03;;;11.50;99.90;;;;;;12527149;28;20056;-36
2024/02/17 15:44:20;;;;;;;40.85;38.65;;;11.40;99.90;;;;;;12486231;28;20056;-35
2024/02/17 15:50:26;;;;;;;43.35;40.85;;;11.60;99.90;;;;;;12505206;28;20145;-35
2024/02/17 15:56:28;;;;;;;43.88;41.08;;;11.50;99.90;;;;;;12526419;28;20048;-35
2024/02/17 16:02:30;;;;;;;34.72;32.75;;;11.40;99.90;;;;;;12525484;28;20490;-36
2024/02/17 16:08:34;;;;;;;38.58;36.33;;;11.30;99.90;;;;;;12518539;28;20136;-35
2024/02/17 16:14:39;;;;;;;37.78;35.72;;;11.30;99.90;;;;;;12511367;28;20478;-36
2024/02/17 16:20:41;;;;;;;42.08;39.65;;;11.00;99.90;;;;;;12529822;28;20516;-35
2024/02/17 16:26:46;;;;;;;45.78;43.28;;;10.70;99.90;;;;;;12571177;28;20059;-35
2024/02/17 16:32:47;;;;;;;41.47;39.08;;;10.40;99.90;;;;;;12554162;28;20087;-36
2024/02/17 16:39:10;;;;;;;41.75;39.47;;;10.20;99.90;;;;;;12553815;28;20050;-36
2024/02/17 16:45:12;;;;;;;38.30;35.95;;;10.20;99.90;;;;;;12530911;28;20049;-36
2024/02/17 16:51:14;;;;;;;37.67;35.47;;;10.10;99.90;;;;;;12583289;28;20043;-35
2024/02/17 16:57:16;;;;;;;33.88;31.77;;;10.10;99.90;;;;;;12561259;28;20060;-36
2024/02/17 17:03:20;;;;;;;34.92;32.58;;;10.20;99.90;;;;;;12570302;28;20048;-35
2024/02/17 17:09:22;;;;;;;35.17;33.13;;;10.00;99.90;;;;;;12568909;28;20280;-36
2024/02/17 17:15:24;;;;;;;36.05;33.85;;;9.90;99.90;;;;;;12568453;28;20071;-35
2024/02/17 17:21:26;;;;;;;38.60;36.40;;;9.70;99.90;;;;;;12535219;28;20057;-36
2024/02/17 17:27:27;;;;;;;46.60;44.00;;;9.50;99.90;;;;;;12573057;28;20056;-35
2024/02/17 17:33:29;;;;;;;45.72;43.13;;;9.40;99.90;;;;;;12562004;28;20048;-35
2024/02/17 17:39:31;;;;;;;39.38;36.92;;;9.30;99.90;;;;;;12562875;28;20139;-35
2024/02/17 17:45:33;;;;;;;40.03;37.63;;;9.10;99.90;;;;;;12537628;28;20045;-36
2024/02/17 17:51:35;;;;;;;44.88;41.90;;;9.00;99.90;;;;;;12571138;28;20041;-35
2024/02/17 17:57:37;;;;;;;44.10;41.40;;;8.90;99.90;;;;;;12552802;28;20089;-35
2024/02/17 18:03:39;;;;;;;43.60;40.88;;;8.80;99.90;;;;;;12548306;28;20044;-35
2024/02/17 18:09:41;;;;;;;42.90;40.50;;;8.80;99.90;;;;;;12577768;28;20045;-36
2024/02/17 18:15:44;;;;;;;38.13;35.85;;;8.80;99.90;;;;;;12548587;28;20063;-35
2024/02/17 18:21:47;;;;;;;39.70;37.33;;;8.60;99.90;;;;;;12560936;28;20105;-36
2024/02/17 18:27:49;;;;;;;39.45;37.05;;;8.60;99.90;;;;;;12567469;28;20044;-35
2024/02/17 18:33:51;;;;;;;39.88;37.47;;;8.60;99.90;;;;;;12548500;28;20055;-35
2024/02/17 18:39:53;;;;;;;38.95;36.35;;;8.60;99.90;;;;;;12557207;28;20049;-36
2024/02/17 18:45:55;;;;;;;38.30;36.00;;;8.70;99.90;;;;;;12567325;28;20079;-35
2024/02/17 18:51:59;;;;;;;41.70;39.10;;;8.80;99.90;;;;;;12581143;28;20083;-35
2024/02/17 18:58:01;;;;;;;42.72;40.30;;;8.70;99.90;;;;;;12564171;28;20048;-35
2024/02/17 19:04:03;;;;;;;47.92;45.03;;;8.80;99.90;;;;;;12568550;28;20097;-35
2024/02/17 19:10:06;;;;;;;47.00;44.30;;;8.80;99.90;;;;;;12583423;28;20037;-35
2024/02/17 19:16:09;;;;;;;53.78;50.78;;;8.80;99.90;;;;;;12577892;28;20052;-35
2024/02/17 19:22:11;;;;;;;58.25;54.95;;;8.70;99.90;;;;;;12566692;28;20786;-36
2024/02/17 19:28:14;;;;;;;66.05;62.33;;;8.70;99.90;;;;;;12568569;28;20501;-36
2024/02/17 19:34:15;;;;;;;66.50;62.80;;;8.60;99.90;;;;;;12554735;28;20135;-35
2024/02/17 19:40:19;;;;;;;66.60;62.85;;;8.40;99.90;;;;;;12558526;28;20129;-36
2024/02/17 19:46:21;;;;;;;69.00;65.20;;;8.30;99.90;;;;;;12561885;28;20052;-35
2024/02/17 19:52:23;;;;;;;69.80;65.93;;;8.20;99.90;;;;;;12583271;28;20079;-35
2024/02/17 19:58:24;;;;;;;72.38;68.35;;;8.10;99.90;;;;;;12563451;28;20135;-36
2024/02/17 20:04:27;;;;;;;78.57;74.18;;;8.00;99.90;;;;;;12547345;28;20110;-35
2024/02/17 20:10:29;;;;;;;77.30;73.05;;;8.10;99.90;;;;;;12558285;28;20127;-35
2024/02/17 20:16:31;;;;;;;74.55;70.13;;;8.10;99.90;;;;;;12570253;28;20084;-36
2024/02/17 20:22:33;;;;;;;77.28;72.97;;;8.10;99.90;;;;;;12559544;28;20548;-35
2024/02/17 20:28:34;;;;;;;81.72;77.32;;;8.20;99.90;;;;;;12558888;28;20135;-35
2024/02/17 20:34:37;;;;;;;75.70;71.38;;;8.30;99.90;;;;;;12558740;28;20489;-36
2024/02/17 20:40:39;;;;;;;69.65;65.75;;;8.30;99.90;;;;;;12579481;28;20044;-35
2024/02/17 20:46:42;;;;;;;72.45;68.32;;;8.30;99.90;;;;;;12567729;28;20048;-35
2024/02/17 20:52:43;;;;;;;70.90;66.60;;;8.40;99.90;;;;;;12586015;28;20158;-35
2024/02/17 20:58:46;;;;;;;71.97;67.68;;;8.50;99.90;;;;;;12550419;28;20428;-35
2024/02/17 21:04:48;;;;;;;66.53;62.45;;;8.50;99.90;;;;;;12579784;28;20413;-35
2024/02/17 21:10:50;;;;;;;67.47;63.25;;;8.60;99.90;;;;;;12567672;28;20045;-35
2024/02/17 21:16:52;;;;;;;70.18;66.00;;;8.60;99.90;;;;;;12591893;28;20405;-35
2024/02/17 21:22:54;;;;;;;75.22;70.97;;;8.70;99.90;;;;;;12552579;28;20532;-35
2024/02/17 21:28:58;;;;;;;72.20;67.78;;;8.40;99.90;;;;;;12571382;28;20543;-35
2024/02/17 21:35:00;;;;;;;72.97;68.70;;;8.40;99.90;;;;;;12557776;28;20508;-35
2024/02/17 21:41:02;;;;;;;74.00;69.40;;;8.40;99.90;;;;;;12570699;28;20044;-35
2024/02/17 21:47:05;;;;;;;73.22;68.97;;;8.40;99.90;;;;;;12559371;28;20068;-35
2024/02/17 21:53:08;;;;;;;79.90;75.07;;;8.50;99.90;;;;;;12550566;28;20067;-36
2024/02/17 21:59:10;;;;;;;85.88;80.90;;;8.60;99.90;;;;;;12573164;28;20051;-35
2024/02/17 22:05:12;;;;;;;87.28;82.07;;;8.50;99.90;;;;;;12538934;28;20402;-35
2024/02/17 22:11:14;;;;;;;89.72;83.57;;;8.50;99.90;;;;;;12567317;28;20048;-35
2024/02/17 22:17:15;;;;;;;86.03;79.72;;;8.60;99.90;;;;;;12562564;28;20118;-35
2024/02/17 22:23:17;;;;;;;85.05;79.35;;;8.80;99.90;;;;;;12560872;28;20496;-36
2024/02/17 22:29:19;;;;;;;92.45;86.13;;;8.80;99.90;;;;;;12573056;28;20107;-35
2024/02/17 22:35:21;;;;;;;99.18;91.72;;;8.80;99.90;;;;;;12572194;28;20171;-35
2024/02/17 22:41:23;;;;;;;100.93;93.97;;;8.90;99.90;;;;;;12555419;28;20059;-35
2024/02/17 22:47:25;;;;;;;113.07;105.03;;;8.90;99.90;;;;;;12567951;28;20198;-35
2024/02/17 22:53:26;;;;;;;119.60;110.65;;;8.90;99.90;;;;;;12575168;28;20095;-35
2024/02/17 22:59:28;;;;;;;120.78;111.00;;;9.00;99.90;;;;;;12556874;28;20057;-35
2024/02/17 23:05:30;;;;;;;120.05;110.63;;;9.00;99.90;;;;;;12564076;28;20040;-35
2024/02/17 23:11:32;;;;;;;123.82;114.18;;;8.90;99.90;;;;;;12558162;28;20485;-35
2024/02/17 23:17:34;;;;;;;125.65;115.72;;;8.80;99.90;;;;;;12572909;28;20382;-35
2024/02/17 23:23:36;;;;;;;125.10;115.20;;;8.80;99.90;;;;;;12550337;28;20061;-35
2024/02/17 23:29:40;;;;;;;124.05;114.07;;;8.60;99.90;;;;;;12572420;28;20077;-35
2024/02/17 23:35:42;;;;;;;119.30;108.97;;;8.60;99.90;;;;;;12563469;28;20044;-36
2024/02/17 23:41:43;;;;;;;117.18;106.53;;;8.80;99.90;;;;;;12552837;28;20045;-35
2024/02/17 23:47:45;;;;;;;109.15;99.15;;;8.80;99.90;;;;;;12559977;28;20049;-35
2024/02/17 23:53:47;;;;;;;113.97;103.57;;;8.90;99.90;;;;;;12561148;28;20045;-35
2024/02/17 23:59:49;;;;;;;112.97;102.60;;;8.90;99.90;;;;;;12567484;28;20060;-35
